createdAt,value
2022-12-15T00:02:13.320Z,19.42
2022-12-15T00:04:58.161Z,19.37
2022-12-15T00:07:43.209Z,19.31
2022-12-15T00:10:28.050Z,19.28
2022-12-15T00:13:12.914Z,19.25
2022-12-15T00:15:57.708Z,19.22
2022-12-15T00:18:42.850Z,19.16
2022-12-15T00:21:28.332Z,19.12
2022-12-15T00:24:13.175Z,19.10
2022-12-15T00:26:57.961Z,19.05
2022-12-15T00:29:42.750Z,19.00
2022-12-15T00:32:27.650Z,18.97
2022-12-15T00:35:12.404Z,18.93
2022-12-15T00:37:57.278Z,18.89
2022-12-15T00:40:23.757Z,18.84
2022-12-15T00:42:50.211Z,18.80
2022-12-15T00:45:16.752Z,18.78
2022-12-15T00:47:43.304Z,18.77
2022-12-15T00:50:28.497Z,18.73
2022-12-15T00:53:13.299Z,18.71
2022-12-15T00:55:58.059Z,18.67
2022-12-15T00:58:42.887Z,18.63
2022-12-15T01:01:29.334Z,18.61
2022-12-15T01:04:14.771Z,18.57
2022-12-15T01:06:59.995Z,18.52
2022-12-15T01:09:44.921Z,18.50
2022-12-15T01:12:30.029Z,18.48
2022-12-15T01:15:14.900Z,18.44
2022-12-15T01:17:59.721Z,18.40
2022-12-15T01:20:26.196Z,18.38
2022-12-15T01:22:55.951Z,18.36
2022-12-15T01:25:24.742Z,18.33
2022-12-15T01:27:51.649Z,18.29
2022-12-15T01:30:21.606Z,18.28
2022-12-15T01:32:48.086Z,18.24
2022-12-15T01:35:14.848Z,18.23
2022-12-15T01:37:41.356Z,18.19
2022-12-15T01:40:30.228Z,18.16
2022-12-15T01:42:56.654Z,18.14
2022-12-15T01:45:29.110Z,18.10
2022-12-15T01:48:12.672Z,18.09
2022-12-15T01:51:24.426Z,18.06
2022-12-15T01:53:59.309Z,18.02
2022-12-15T01:56:30.086Z,17.99
2022-12-15T01:59:03.021Z,17.97
2022-12-15T02:01:29.759Z,17.93
2022-12-15T02:03:56.749Z,17.91
2022-12-15T02:06:25.588Z,17.88
2022-12-15T02:08:55.289Z,17.88
2022-12-15T02:11:55.583Z,17.85
2022-12-15T02:14:40.302Z,17.81
2022-12-15T02:17:40.581Z,17.77
2022-12-15T02:20:48.607Z,17.73
2022-12-15T02:23:24.033Z,17.69
2022-12-15T02:25:53.304Z,17.67
2022-12-15T02:28:46.000Z,17.63
2022-12-15T02:31:35.913Z,17.62
2022-12-15T02:34:14.738Z,17.60
2022-12-15T02:36:47.541Z,17.58
2022-12-15T02:39:14.871Z,17.55
2022-12-15T02:41:44.215Z,17.55
2022-12-15T02:44:14.242Z,17.50
2022-12-15T02:46:59.417Z,17.49
2022-12-15T02:49:49.810Z,17.46
2022-12-15T02:52:28.495Z,17.44
2022-12-15T02:55:22.990Z,17.43
2022-12-15T02:58:01.835Z,17.40
2022-12-15T03:00:31.929Z,17.37
2022-12-15T03:02:59.209Z,17.33
2022-12-15T03:05:26.229Z,17.34
2022-12-15T03:07:54.306Z,17.33
2022-12-15T03:10:24.447Z,17.31
2022-12-15T03:12:51.809Z,17.29
2022-12-15T03:15:19.265Z,17.25
2022-12-15T03:17:45.889Z,17.24
2022-12-15T03:20:12.374Z,17.24
2022-12-15T03:22:39.378Z,17.22
2022-12-15T03:25:06.251Z,17.21
2022-12-15T03:27:32.831Z,17.20
2022-12-15T03:29:59.332Z,17.17
2022-12-15T03:32:25.780Z,17.15
2022-12-15T03:34:52.247Z,17.13
2022-12-15T03:37:18.728Z,17.12
2022-12-15T03:39:45.193Z,17.13
2022-12-15T03:42:11.694Z,17.11
2022-12-15T03:44:38.143Z,17.08
2022-12-15T03:47:05.869Z,17.05
2022-12-15T03:49:32.501Z,17.03
2022-12-15T03:51:58.942Z,17.01
2022-12-15T03:54:25.419Z,17.00
2022-12-15T03:56:51.965Z,16.99
2022-12-15T03:59:18.965Z,16.97
2022-12-15T04:01:48.082Z,16.95
2022-12-15T04:04:15.287Z,16.93
2022-12-15T04:06:41.764Z,16.92
2022-12-15T04:09:08.287Z,16.89
2022-12-15T04:11:34.742Z,16.87
2022-12-15T04:14:01.255Z,16.87
2022-12-15T04:16:27.786Z,16.85
2022-12-15T04:19:14.245Z,16.82
2022-12-15T04:21:40.699Z,16.80
2022-12-15T04:24:25.968Z,16.78
2022-12-15T04:27:10.766Z,16.76
2022-12-15T04:29:55.515Z,16.75
2022-12-15T04:32:40.314Z,16.72
2022-12-15T04:35:25.343Z,16.71
2022-12-15T04:38:10.595Z,16.69
2022-12-15T04:40:55.937Z,16.66
2022-12-15T04:43:41.365Z,16.63
2022-12-15T04:46:26.157Z,16.62
2022-12-15T04:49:11.231Z,16.59
2022-12-15T04:51:56.071Z,16.57
2022-12-15T04:54:40.850Z,16.56
2022-12-15T04:57:25.668Z,16.53
2022-12-15T05:00:10.701Z,16.52
2022-12-15T05:02:55.508Z,16.52
2022-12-15T05:05:40.107Z,16.51
2022-12-15T05:08:24.990Z,16.46
2022-12-15T05:11:09.723Z,16.46
2022-12-15T05:13:54.572Z,16.42
2022-12-15T05:16:39.377Z,16.41
2022-12-15T05:19:24.509Z,16.40
2022-12-15T05:22:09.349Z,16.38
2022-12-15T05:24:54.089Z,16.38
2022-12-15T05:27:38.921Z,16.35
2022-12-15T05:30:24.195Z,16.32
2022-12-15T05:32:50.647Z,16.30
2022-12-15T05:35:18.316Z,16.30
2022-12-15T05:37:44.910Z,16.27
2022-12-15T05:40:11.721Z,16.28
2022-12-15T05:42:38.230Z,16.26
2022-12-15T05:45:05.237Z,16.23
2022-12-15T05:47:31.762Z,16.23
2022-12-15T05:49:58.174Z,16.22
2022-12-15T05:52:24.845Z,16.20
2022-12-15T05:54:51.527Z,16.19
2022-12-15T05:57:18.046Z,16.19
2022-12-15T05:59:44.627Z,16.19
2022-12-15T06:02:11.295Z,16.19
2022-12-15T06:04:37.920Z,16.20
2022-12-15T06:07:04.427Z,16.20
2022-12-15T06:09:30.892Z,16.22
2022-12-15T06:11:57.363Z,16.23
2022-12-15T06:14:23.878Z,16.24
2022-12-15T06:16:51.671Z,16.26
2022-12-15T06:19:19.418Z,16.29
2022-12-15T06:21:45.942Z,16.30
2022-12-15T06:24:12.457Z,16.33
2022-12-15T06:26:40.227Z,16.38
2022-12-15T06:29:08.958Z,16.40
2022-12-15T06:31:36.389Z,16.45
2022-12-15T06:34:05.356Z,16.52
2022-12-15T06:36:32.028Z,16.59
2022-12-15T06:39:00.627Z,16.67
2022-12-15T06:41:28.036Z,16.78
2022-12-15T06:43:58.260Z,16.87
2022-12-15T06:46:26.318Z,16.97
2022-12-15T06:48:53.289Z,17.07
2022-12-15T06:51:20.553Z,17.17
2022-12-15T06:53:52.519Z,17.28
2022-12-15T06:56:32.599Z,17.42
2022-12-15T06:59:00.515Z,17.53
2022-12-15T07:01:27.612Z,17.63
2022-12-15T07:03:54.990Z,17.74
2022-12-15T07:06:21.995Z,17.88
2022-12-15T07:08:52.466Z,18.03
2022-12-15T07:11:20.978Z,18.13
2022-12-15T07:13:52.205Z,18.21
2022-12-15T07:16:19.761Z,18.29
2022-12-15T07:18:46.297Z,18.29
2022-12-15T07:21:12.945Z,18.35
2022-12-15T07:23:54.224Z,18.41
2022-12-15T07:26:21.780Z,18.42
2022-12-15T07:28:48.296Z,18.50
2022-12-15T07:31:15.534Z,18.57
2022-12-15T07:33:42.518Z,18.61
2022-12-15T07:36:09.312Z,18.70
2022-12-15T07:38:36.271Z,18.76
2022-12-15T07:41:04.895Z,18.83
2022-12-15T07:43:32.110Z,18.91
2022-12-15T07:45:59.199Z,18.99
2022-12-15T07:48:27.177Z,19.07
2022-12-15T07:51:02.747Z,19.17
2022-12-15T07:53:35.371Z,19.27
2022-12-15T07:56:09.007Z,19.37
2022-12-15T07:58:36.537Z,19.47
2022-12-15T08:01:06.183Z,19.58
2022-12-15T08:03:33.488Z,19.67
2022-12-15T08:06:08.711Z,19.76
2022-12-15T08:08:35.998Z,19.86
2022-12-15T08:11:06.947Z,19.95
2022-12-15T08:16:21.404Z,20.12
2022-12-15T08:18:48.762Z,20.19
2022-12-15T08:21:15.359Z,20.26
2022-12-15T08:23:41.911Z,20.36
2022-12-15T08:26:10.932Z,20.42
2022-12-15T08:28:39.330Z,20.50
2022-12-15T08:31:11.715Z,20.58
2022-12-15T08:33:38.280Z,20.63
2022-12-15T08:36:07.331Z,20.71
2022-12-15T08:38:35.524Z,20.77
2022-12-15T08:41:10.053Z,20.83
2022-12-15T08:43:45.773Z,20.87
2022-12-15T08:46:17.085Z,20.93
2022-12-15T08:48:43.717Z,21.00
2022-12-15T08:51:10.678Z,21.07
2022-12-15T08:53:37.376Z,21.11
2022-12-15T08:56:09.388Z,21.18
2022-12-15T08:58:36.483Z,21.23
2022-12-15T09:01:06.263Z,21.30
2022-12-15T09:03:34.559Z,21.35
2022-12-15T09:06:03.789Z,21.43
2022-12-15T09:08:31.068Z,21.47
2022-12-15T09:10:59.011Z,21.54
2022-12-15T09:13:25.650Z,21.59
2022-12-15T09:16:11.225Z,21.64
2022-12-15T09:18:38.218Z,21.69
2022-12-15T09:21:07.478Z,21.74
2022-12-15T09:23:36.011Z,21.76
2022-12-15T09:26:12.087Z,21.83
2022-12-15T09:28:38.774Z,21.86
2022-12-15T09:31:08.477Z,21.91
2022-12-15T09:33:35.954Z,21.93
2022-12-15T09:36:03.731Z,21.97
2022-12-15T09:38:31.190Z,22.02
2022-12-15T09:40:57.708Z,22.07
2022-12-15T09:43:37.038Z,22.08
2022-12-15T09:46:16.915Z,22.12
2022-12-15T09:48:45.472Z,22.13
2022-12-15T09:51:16.085Z,22.18
2022-12-15T09:53:54.649Z,22.20
2022-12-15T09:56:50.122Z,22.20
2022-12-15T09:59:16.663Z,22.23
2022-12-15T10:01:52.528Z,22.25
2022-12-15T10:04:37.967Z,22.28
2022-12-15T10:07:30.085Z,22.28
2022-12-15T10:09:56.873Z,22.29
2022-12-15T10:12:33.042Z,22.27
2022-12-15T10:15:17.016Z,22.28
2022-12-15T10:17:55.215Z,22.25
2022-12-15T10:20:28.828Z,22.24
2022-12-15T10:23:01.800Z,22.24
2022-12-15T10:25:32.024Z,22.22
2022-12-15T10:28:16.781Z,22.21
2022-12-15T10:31:16.755Z,22.20
2022-12-15T10:33:47.119Z,22.20
2022-12-15T10:36:16.487Z,22.19
2022-12-15T10:38:50.469Z,22.17
2022-12-15T10:41:26.360Z,22.16
2022-12-15T10:43:54.252Z,22.16
2022-12-15T10:46:29.576Z,22.15
2022-12-15T10:48:59.319Z,22.16
2022-12-15T10:51:49.357Z,22.12
2022-12-15T10:54:18.325Z,22.14
2022-12-15T10:57:01.677Z,22.11
2022-12-15T10:59:33.491Z,22.07
2022-12-15T11:02:25.266Z,22.06
2022-12-15T11:05:05.154Z,22.06
2022-12-15T11:07:37.282Z,22.03
2022-12-15T11:10:17.242Z,22.03
2022-12-15T11:12:58.278Z,22.02
2022-12-15T11:15:25.269Z,22.00
2022-12-15T11:18:06.979Z,22.00
2022-12-15T11:20:38.182Z,22.00
2022-12-15T11:23:16.620Z,21.98
2022-12-15T11:25:48.302Z,21.96
2022-12-15T11:28:26.756Z,21.96
2022-12-15T11:31:00.369Z,21.96
2022-12-15T11:33:27.032Z,21.94
2022-12-15T11:36:15.312Z,21.94
2022-12-15T11:38:46.168Z,21.95
2022-12-15T11:41:38.331Z,21.92
2022-12-15T11:44:42.387Z,21.93
2022-12-15T11:47:23.247Z,21.93
2022-12-15T11:49:55.729Z,21.90
2022-12-15T11:53:03.704Z,21.87
2022-12-15T11:55:41.281Z,21.83
2022-12-15T11:58:13.999Z,21.81
2022-12-15T12:00:48.907Z,21.79
2022-12-15T12:03:38.434Z,21.77
2022-12-15T12:06:25.824Z,21.75
2022-12-15T12:09:03.864Z,21.72
2022-12-15T12:11:42.134Z,21.70
2022-12-15T12:14:17.280Z,21.68
2022-12-15T12:16:58.923Z,21.62
2022-12-15T12:19:25.370Z,21.56
2022-12-15T12:21:57.605Z,21.55
2022-12-15T12:24:29.851Z,21.52
2022-12-15T12:27:12.712Z,21.52
2022-12-15T12:29:55.473Z,21.51
2022-12-15T12:32:40.426Z,21.49
2022-12-15T12:35:30.847Z,21.48
2022-12-15T12:41:14.293Z,21.44
2022-12-15T12:43:50.397Z,21.43
2022-12-15T12:46:34.004Z,21.42
2022-12-15T12:49:07.671Z,21.39
2022-12-15T12:51:37.990Z,21.39
2022-12-15T12:54:36.191Z,21.38
2022-12-15T12:57:28.505Z,21.39
2022-12-15T13:00:15.586Z,21.38
2022-12-15T13:02:53.100Z,21.36
2022-12-15T13:05:22.600Z,21.34
2022-12-15T13:08:09.507Z,21.34
2022-12-15T13:10:38.781Z,21.33
2022-12-15T13:13:31.433Z,21.32
2022-12-15T13:16:08.306Z,21.33
2022-12-15T13:21:43.555Z,21.37
2022-12-15T13:24:35.985Z,21.42
2022-12-15T13:27:14.252Z,21.44
2022-12-15T13:30:05.787Z,21.48
2022-12-15T13:32:35.403Z,21.50
2022-12-15T13:35:17.221Z,21.52
2022-12-15T13:37:49.001Z,21.58
2022-12-15T13:40:35.103Z,21.66
2022-12-15T13:43:04.776Z,21.67
2022-12-15T13:45:37.620Z,21.73
2022-12-15T13:48:22.623Z,21.76
2022-12-15T13:51:05.496Z,21.79
2022-12-15T13:53:53.554Z,21.80
2022-12-15T13:56:46.015Z,21.79
2022-12-15T13:59:40.242Z,21.75
2022-12-15T14:02:29.831Z,21.76
2022-12-15T14:05:14.882Z,21.75
2022-12-15T14:07:49.550Z,21.76
2022-12-15T14:10:29.801Z,21.74
2022-12-15T14:13:01.087Z,21.77
2022-12-15T14:15:31.468Z,21.77
2022-12-15T14:18:00.330Z,21.78
2022-12-15T14:20:31.894Z,21.77
2022-12-15T14:22:59.015Z,21.79
2022-12-15T14:25:29.349Z,21.80
2022-12-15T14:27:56.523Z,21.79
2022-12-15T14:30:24.804Z,21.77
2022-12-15T14:33:01.000Z,21.77
2022-12-15T14:35:36.688Z,21.78
2022-12-15T14:38:07.484Z,21.78
2022-12-15T14:40:37.690Z,21.77
2022-12-15T14:43:07.247Z,21.74
2022-12-15T14:45:33.950Z,21.73
2022-12-15T14:50:53.384Z,21.71
2022-12-15T14:53:21.849Z,21.67
2022-12-15T14:55:48.701Z,21.63
2022-12-15T14:58:32.866Z,21.56
2022-12-15T15:01:00.915Z,21.50
2022-12-15T15:03:09.591Z,21.47
2022-12-15T15:03:39.066Z,21.46
2022-12-15T15:06:11.812Z,21.44
2022-12-15T15:08:50.281Z,21.41
2022-12-15T15:11:31.322Z,21.39
2022-12-15T15:14:07.612Z,21.33
2022-12-15T15:16:34.319Z,21.33
2022-12-15T15:19:02.756Z,21.35
2022-12-15T15:21:33.886Z,21.36
2022-12-15T15:24:09.583Z,21.36
2022-12-15T15:26:36.440Z,21.38
2022-12-15T15:29:03.752Z,21.41
2022-12-15T15:31:41.572Z,21.43
2022-12-15T15:34:08.654Z,21.45
2022-12-15T15:36:37.821Z,21.47
2022-12-15T15:39:14.199Z,21.47
2022-12-15T15:41:41.133Z,21.49
2022-12-15T15:44:14.503Z,21.50
2022-12-15T15:46:46.791Z,21.51
2022-12-15T15:49:17.755Z,21.53
2022-12-15T15:51:44.264Z,21.57
2022-12-15T15:54:14.892Z,21.58
2022-12-15T15:56:41.587Z,21.60
2022-12-15T15:59:14.039Z,21.62
2022-12-15T16:01:41.061Z,21.64
2022-12-15T16:04:07.775Z,21.65
2022-12-15T16:06:39.765Z,21.65
2022-12-15T16:09:12.672Z,21.64
2022-12-15T16:11:39.193Z,21.63
2022-12-15T16:14:12.032Z,21.59
2022-12-15T16:16:38.704Z,21.54
2022-12-15T16:19:05.322Z,21.47
2022-12-15T16:21:31.829Z,21.42
2022-12-15T16:23:58.974Z,21.35
2022-12-15T16:26:33.010Z,21.29
2022-12-15T16:28:59.806Z,21.24
2022-12-15T16:31:41.726Z,21.18
2022-12-15T16:34:08.577Z,21.13
2022-12-15T16:36:35.198Z,21.08
2022-12-15T16:39:01.928Z,21.01
2022-12-15T16:41:28.439Z,20.96
2022-12-15T16:43:54.909Z,20.89
2022-12-15T16:46:21.553Z,20.83
2022-12-15T16:48:48.243Z,20.75
2022-12-15T16:51:39.189Z,20.67
2022-12-15T16:54:06.923Z,20.62
2022-12-15T16:56:33.565Z,20.56
2022-12-15T16:59:30.854Z,20.52
2022-12-15T17:01:46.759Z,20.50
2022-12-15T17:04:16.237Z,20.49
2022-12-15T17:06:43.342Z,20.48
2022-12-15T17:09:15.258Z,20.46
2022-12-15T17:11:41.738Z,20.47
2022-12-15T17:14:10.202Z,20.48
2022-12-15T17:16:36.911Z,20.51
2022-12-15T17:19:03.426Z,20.52
2022-12-15T17:21:33.972Z,20.55
2022-12-15T17:24:14.046Z,20.57
2022-12-15T17:26:41.777Z,20.60
2022-12-15T17:29:15.059Z,20.63
2022-12-15T17:31:41.595Z,20.66
2022-12-15T17:34:43.605Z,20.70
2022-12-15T17:37:13.483Z,20.73
2022-12-15T17:39:44.686Z,20.76
2022-12-15T17:42:19.662Z,20.79
2022-12-15T17:44:47.790Z,20.82
2022-12-15T17:47:15.758Z,20.85
2022-12-15T17:49:43.414Z,20.88
2022-12-15T17:52:29.346Z,20.90
2022-12-15T17:54:56.484Z,20.92
2022-12-15T17:57:23.306Z,20.95
2022-12-15T17:59:50.085Z,20.96
2022-12-15T18:02:16.984Z,21.00
2022-12-15T18:04:44.156Z,21.01
2022-12-15T18:07:22.458Z,21.03
2022-12-15T18:09:50.968Z,21.05
2022-12-15T18:12:23.326Z,21.07
2022-12-15T18:14:49.945Z,21.08
2022-12-15T18:17:16.660Z,21.10
2022-12-15T18:19:43.271Z,21.11
2022-12-15T18:22:30.495Z,21.12
2022-12-15T18:25:14.308Z,21.14
2022-12-15T18:27:41.053Z,21.14
2022-12-15T18:30:13.048Z,21.16
2022-12-15T18:32:42.070Z,21.18
2022-12-15T18:35:30.288Z,21.18
2022-12-15T18:37:56.802Z,21.20
2022-12-15T18:40:26.876Z,21.20
2022-12-15T18:42:54.419Z,21.20
2022-12-15T18:45:28.022Z,21.21
2022-12-15T18:47:54.784Z,21.23
2022-12-15T18:50:23.680Z,21.22
2022-12-15T18:53:02.449Z,21.23
2022-12-15T18:55:31.187Z,21.25
2022-12-15T18:58:01.770Z,21.25
2022-12-15T19:00:30.433Z,21.25
2022-12-15T19:03:00.041Z,21.25
2022-12-15T19:05:28.710Z,21.26
2022-12-15T19:07:57.945Z,21.27
2022-12-15T19:10:26.730Z,21.27
2022-12-15T19:12:58.358Z,21.28
2022-12-15T19:15:25.833Z,21.30
2022-12-15T19:18:10.980Z,21.30
2022-12-15T19:20:56.246Z,21.31
2022-12-15T19:23:22.875Z,21.33
2022-12-15T19:25:51.241Z,21.31
2022-12-15T19:28:21.181Z,21.33
2022-12-15T19:30:47.982Z,21.33
2022-12-15T19:33:16.013Z,21.33
2022-12-15T19:35:45.072Z,21.36
2022-12-15T19:38:22.584Z,21.35
2022-12-15T19:40:53.215Z,21.36
2022-12-15T19:43:21.177Z,21.37
2022-12-15T19:45:47.981Z,21.37
2022-12-15T19:48:18.694Z,21.38
2022-12-15T19:50:51.685Z,21.40
2022-12-15T19:53:25.580Z,21.40
2022-12-15T19:55:54.961Z,21.40
2022-12-15T19:58:28.703Z,21.41
2022-12-15T20:01:07.186Z,21.42
2022-12-15T20:03:34.877Z,21.43
2022-12-15T20:06:02.965Z,21.43
2022-12-15T20:08:34.269Z,21.45
2022-12-15T20:11:00.952Z,21.46
2022-12-15T20:13:27.445Z,21.46
2022-12-15T20:15:54.335Z,21.47
2022-12-15T20:18:21.002Z,21.49
2022-12-15T20:20:49.197Z,21.50
2022-12-15T20:23:23.664Z,21.51
2022-12-15T20:25:50.317Z,21.52
2022-12-15T20:28:23.784Z,21.54
2022-12-15T20:30:51.331Z,21.53
2022-12-15T20:33:19.668Z,21.57
2022-12-15T20:35:48.157Z,21.57
2022-12-15T20:38:23.884Z,21.58
2022-12-15T20:40:50.964Z,21.58
2022-12-15T20:43:20.389Z,21.60
2022-12-15T20:45:51.970Z,21.61
2022-12-15T20:48:21.604Z,21.63
2022-12-15T20:50:49.824Z,21.65
2022-12-15T20:53:23.204Z,21.66
2022-12-15T20:55:51.218Z,21.67
2022-12-15T20:58:18.751Z,21.67
2022-12-15T21:00:46.327Z,21.67
2022-12-15T21:03:25.430Z,21.69
2022-12-15T21:05:54.261Z,21.70
2022-12-15T21:08:29.642Z,21.72
2022-12-15T21:11:00.143Z,21.72
2022-12-15T21:13:30.183Z,21.73
2022-12-15T21:15:57.064Z,21.72
2022-12-15T21:21:17.550Z,21.79
2022-12-15T21:23:44.144Z,21.80
2022-12-15T21:26:10.806Z,21.80
2022-12-15T21:28:37.298Z,21.82
2022-12-15T21:31:04.103Z,21.82
2022-12-15T21:33:30.584Z,21.84
2022-12-15T21:35:57.149Z,21.86
2022-12-15T21:38:39.842Z,21.86
2022-12-15T21:41:10.684Z,21.87
2022-12-15T21:43:37.481Z,21.88
2022-12-15T21:46:15.256Z,21.89
2022-12-15T21:49:01.031Z,21.89
2022-12-15T21:51:32.978Z,21.89
2022-12-15T21:53:59.857Z,21.89
2022-12-15T21:56:26.419Z,21.90
2022-12-15T21:58:52.925Z,21.88
2022-12-15T22:01:24.245Z,21.90
2022-12-15T22:03:53.411Z,21.90
2022-12-15T22:06:24.620Z,21.91
2022-12-15T22:08:52.433Z,21.89
2022-12-15T22:11:23.182Z,21.90
2022-12-15T22:13:51.750Z,21.90
2022-12-15T22:16:19.345Z,21.91
2022-12-15T22:18:52.125Z,21.90
2022-12-15T22:21:18.961Z,21.90
2022-12-15T22:23:47.859Z,21.89
2022-12-15T22:26:31.475Z,21.86
2022-12-15T22:29:01.389Z,21.84
2022-12-15T22:31:28.401Z,21.78
2022-12-15T22:33:55.219Z,21.72
2022-12-15T22:36:21.742Z,21.66
2022-12-15T22:38:48.241Z,21.59
2022-12-15T22:41:20.053Z,21.53
2022-12-15T22:43:51.246Z,21.45
2022-12-15T22:46:20.221Z,21.39
2022-12-15T22:48:47.738Z,21.31
2022-12-15T22:51:16.704Z,21.24
2022-12-15T22:53:43.281Z,21.15
2022-12-15T22:56:26.052Z,21.07
2022-12-15T22:58:58.882Z,21.00
2022-12-15T23:01:26.951Z,20.91
2022-12-15T23:03:53.925Z,20.85
2022-12-15T23:06:23.484Z,20.78
2022-12-15T23:08:55.765Z,20.69
2022-12-15T23:11:38.669Z,20.63
2022-12-15T23:14:07.785Z,20.54
2022-12-15T23:16:34.822Z,20.48
2022-12-15T23:19:01.788Z,20.40
2022-12-15T23:21:29.027Z,20.35
2022-12-15T23:23:55.507Z,20.26
2022-12-15T23:26:23.583Z,20.20
2022-12-15T23:28:50.034Z,20.14
2022-12-15T23:31:17.442Z,20.07
2022-12-15T23:33:43.988Z,20.01
2022-12-15T23:36:10.822Z,19.94
2022-12-15T23:38:37.277Z,19.89
2022-12-15T23:41:04.409Z,19.84
2022-12-15T23:43:33.318Z,19.76
2022-12-15T23:46:05.930Z,19.69
2022-12-15T23:48:40.641Z,19.63
2022-12-15T23:51:12.619Z,19.56
2022-12-15T23:53:40.340Z,19.49
2022-12-15T23:56:09.704Z,19.46
2022-12-15T23:58:37.673Z,19.40
